Pottstown, Illinois
Current Conditions -  °F | °C
As of 11:54 AM on Sunday 21 Dec 2014 (Local Time) from KPIA Reporting Station
Overcast Overcast  
Wind Chill: 30°   Ceiling: 2500
Heat Index: 39°   Visibility: 9mi
Dew Point: 31°   Wind: 17mph
Humidity: 73%   Direction: 170°S
Pressure: 30.11"   Gusts: 25mph
Location:  40.7583°N, 89.6013°W
Report Text: KPIA 211754Z 17015G22KT 9SM OVC025 04/M01 A3011 RMK AO2 SLP202 T00391006 10044 20022 58020
Loading
Personal Weather Stations






























Interactive Weather Map New forecast layout! Learn more

10-Day Weather Forecast

Advertisements
Track Severe Weather on mobile